sensor_id;sensor_type;location;lat;lon;timestamp;P1;durP1;ratioP1;P2;durP2;ratioP2
69026;SDS011;56080;47.594;19.116;2023-07-31T00:00:39;4.50;;;1.80;;
69026;SDS011;56080;47.594;19.116;2023-07-31T00:20:42;4.30;;;1.90;;
69026;SDS011;56080;47.594;19.116;2023-07-31T00:30:44;4.90;;;1.90;;
69026;SDS011;56080;47.594;19.116;2023-07-31T00:40:47;4.10;;;1.80;;
69026;SDS011;56080;47.594;19.116;2023-07-31T00:50:47;4.60;;;1.80;;
69026;SDS011;56080;47.594;19.116;2023-07-31T01:00:49;4.50;;;1.90;;
69026;SDS011;56080;47.594;19.116;2023-07-31T01:10:59;4.90;;;2.00;;
69026;SDS011;56080;47.594;19.116;2023-07-31T01:20:54;4.30;;;1.70;;
69026;SDS011;56080;47.594;19.116;2023-07-31T01:30:57;4.90;;;2.20;;
69026;SDS011;56080;47.594;19.116;2023-07-31T01:40:55;5.20;;;2.30;;
69026;SDS011;56080;47.594;19.116;2023-07-31T01:50:59;4.50;;;2.30;;
69026;SDS011;56080;47.594;19.116;2023-07-31T02:00:58;6.20;;;2.60;;
69026;SDS011;56080;47.594;19.116;2023-07-31T02:11:00;5.00;;;2.50;;
69026;SDS011;56080;47.594;19.116;2023-07-31T02:21:02;4.70;;;2.20;;
69026;SDS011;56080;47.594;19.116;2023-07-31T02:31:03;5.30;;;2.30;;
69026;SDS011;56080;47.594;19.116;2023-07-31T02:41:05;5.00;;;1.80;;
69026;SDS011;56080;47.594;19.116;2023-07-31T02:51:07;4.50;;;2.10;;
69026;SDS011;56080;47.594;19.116;2023-07-31T03:01:08;4.70;;;1.90;;
69026;SDS011;56080;47.594;19.116;2023-07-31T03:11:10;4.60;;;1.90;;
69026;SDS011;56080;47.594;19.116;2023-07-31T03:21:12;5.30;;;2.50;;
69026;SDS011;56080;47.594;19.116;2023-07-31T03:31:13;5.40;;;2.60;;
69026;SDS011;56080;47.594;19.116;2023-07-31T03:51:16;5.10;;;2.40;;
69026;SDS011;56080;47.594;19.116;2023-07-31T04:01:19;5.20;;;2.40;;
69026;SDS011;56080;47.594;19.116;2023-07-31T04:11:19;5.00;;;1.80;;
69026;SDS011;56080;47.594;19.116;2023-07-31T04:21:22;4.50;;;1.80;;
69026;SDS011;56080;47.594;19.116;2023-07-31T04:31:22;4.60;;;1.70;;
69026;SDS011;56080;47.594;19.116;2023-07-31T04:41:24;5.20;;;2.00;;
69026;SDS011;56080;47.594;19.116;2023-07-31T04:51:26;4.50;;;1.90;;
69026;SDS011;56080;47.594;19.116;2023-07-31T05:01:27;4.20;;;1.90;;
69026;SDS011;56080;47.594;19.116;2023-07-31T05:11:29;4.40;;;1.90;;
69026;SDS011;56080;47.594;19.116;2023-07-31T05:31:34;5.00;;;1.60;;
69026;SDS011;56080;47.594;19.116;2023-07-31T05:41:36;4.70;;;1.80;;
69026;SDS011;56080;47.594;19.116;2023-07-31T05:51:38;4.60;;;1.70;;
69026;SDS011;56080;47.594;19.116;2023-07-31T06:01:41;5.10;;;1.60;;
69026;SDS011;56080;47.594;19.116;2023-07-31T06:11:44;4.60;;;1.40;;
69026;SDS011;56080;47.594;19.116;2023-07-31T06:21:47;4.00;;;1.50;;
69026;SDS011;56080;47.594;19.116;2023-07-31T06:31:50;4.70;;;1.60;;
69026;SDS011;56080;47.594;19.116;2023-07-31T06:41:53;4.80;;;1.70;;
69026;SDS011;56080;47.594;19.116;2023-07-31T06:51:54;4.10;;;1.50;;
69026;SDS011;56080;47.594;19.116;2023-07-31T07:01:57;4.00;;;1.50;;
69026;SDS011;56080;47.594;19.116;2023-07-31T07:11:59;5.30;;;1.80;;
69026;SDS011;56080;47.594;19.116;2023-07-31T07:22:02;4.50;;;1.80;;
69026;SDS011;56080;47.594;19.116;2023-07-31T07:32:04;5.20;;;1.70;;
69026;SDS011;56080;47.594;19.116;2023-07-31T07:42:06;4.50;;;1.40;;
69026;SDS011;56080;47.594;19.116;2023-07-31T07:52:09;5.50;;;1.90;;
69026;SDS011;56080;47.594;19.116;2023-07-31T08:02:12;4.40;;;1.40;;
69026;SDS011;56080;47.594;19.116;2023-07-31T08:12:15;4.90;;;1.60;;
69026;SDS011;56080;47.594;19.116;2023-07-31T08:22:17;4.40;;;1.70;;
69026;SDS011;56080;47.594;19.116;2023-07-31T08:32:19;4.70;;;1.50;;
69026;SDS011;56080;47.594;19.116;2023-07-31T08:42:22;4.80;;;1.60;;
69026;SDS011;56080;47.594;19.116;2023-07-31T08:52:24;5.70;;;1.90;;
69026;SDS011;56080;47.594;19.116;2023-07-31T09:12:29;5.20;;;1.50;;
69026;SDS011;56080;47.594;19.116;2023-07-31T09:22:48;5.60;;;1.50;;
69026;SDS011;56080;47.594;19.116;2023-07-31T09:32:34;5.50;;;1.80;;
69026;SDS011;56080;47.594;19.116;2023-07-31T09:42:36;4.90;;;1.60;;
69026;SDS011;56080;47.594;19.116;2023-07-31T09:52:38;4.60;;;1.60;;
69026;SDS011;56080;47.594;19.116;2023-07-31T10:02:40;4.70;;;1.50;;
69026;SDS011;56080;47.594;19.116;2023-07-31T10:12:43;5.10;;;1.70;;
69026;SDS011;56080;47.594;19.116;2023-07-31T10:22:44;4.00;;;1.40;;
69026;SDS011;56080;47.594;19.116;2023-07-31T10:32:47;4.30;;;1.50;;
69026;SDS011;56080;47.594;19.116;2023-07-31T10:43:05;5.30;;;1.60;;
69026;SDS011;56080;47.594;19.116;2023-07-31T10:52:51;5.80;;;2.00;;
69026;SDS011;56080;47.594;19.116;2023-07-31T11:03:24;4.70;;;1.80;;
69026;SDS011;56080;47.594;19.116;2023-07-31T11:12:55;4.80;;;1.80;;
